createdAt,value
2023-03-11T00:01:27.975Z,99142.94
2023-03-11T00:03:58.329Z,99134.44
2023-03-11T00:06:27.509Z,99130.50
2023-03-11T00:08:56.481Z,99127.97
2023-03-11T00:11:25.485Z,99120.63
2023-03-11T00:13:54.494Z,99128.19
2023-03-11T00:16:23.467Z,99125.19
2023-03-11T00:18:53.449Z,99130.69
2023-03-11T00:21:23.889Z,99121.50
2023-03-11T00:23:52.778Z,99119.88
2023-03-11T00:26:21.735Z,99126.75
2023-03-11T00:28:50.613Z,99119.41
2023-03-11T00:31:19.663Z,99117.81
2023-03-11T00:33:48.739Z,99117.81
2023-03-11T00:36:25.670Z,99120.59
2023-03-11T00:38:54.677Z,99117.16
2023-03-11T00:41:23.628Z,99117.41
2023-03-11T00:43:53.138Z,99114.88
2023-03-11T00:46:22.392Z,99117.66
2023-03-11T00:48:51.957Z,99124.34
2023-03-11T00:51:20.944Z,99120.69
2023-03-11T00:53:51.276Z,99124.59
2023-03-11T00:56:20.725Z,99122.75
2023-03-11T00:58:50.348Z,99119.31
2023-03-11T01:01:21.212Z,99119.78
2023-03-11T01:03:50.697Z,99122.31
2023-03-11T01:06:19.888Z,99125.28
2023-03-11T01:08:50.174Z,99122.31
2023-03-11T01:11:19.126Z,99127.81
2023-03-11T01:13:48.263Z,99129.44
2023-03-11T01:16:17.381Z,99128.78
2023-03-11T01:18:46.305Z,99129.69
2023-03-11T01:21:15.337Z,99132.88
2023-03-11T01:23:44.567Z,99133.13
2023-03-11T01:26:15.676Z,99129.63
2023-03-11T01:28:44.778Z,99129.19
2023-03-11T01:31:13.919Z,99142.94
2023-03-11T01:33:42.865Z,99134.44
2023-03-11T01:36:11.834Z,99135.34
2023-03-11T01:38:40.843Z,99132.16
2023-03-11T01:41:11.406Z,99127.38
2023-03-11T01:43:50.245Z,99130.59
2023-03-11T01:46:25.072Z,99129.22
2023-03-11T01:48:56.218Z,99122.59
2023-03-11T01:51:30.195Z,99128.81
2023-03-11T01:54:03.116Z,99124.91
2023-03-11T01:56:33.310Z,99124.47
2023-03-11T01:59:04.620Z,99130.88
2023-03-11T02:01:34.990Z,99124.91
2023-03-11T02:04:05.394Z,99127.22
2023-03-11T02:06:35.273Z,99132.50
2023-03-11T02:09:04.707Z,99129.28
2023-03-11T02:11:33.796Z,99124.25
2023-03-11T02:14:08.074Z,99126.06
2023-03-11T02:16:37.898Z,99126.97
2023-03-11T02:19:18.738Z,99126.28
2023-03-11T02:21:48.333Z,99127.44
2023-03-11T02:24:22.998Z,99130.19
2023-03-11T02:26:56.620Z,99128.31
2023-03-11T02:29:27.734Z,99132.00
2023-03-11T02:31:58.228Z,99131.53
2023-03-11T02:34:29.667Z,99135.66
2023-03-11T02:36:59.279Z,99122.56
2023-03-11T02:39:32.821Z,99121.59
2023-03-11T02:42:06.993Z,99120.94
2023-03-11T02:44:36.313Z,99120.69
2023-03-11T02:47:05.990Z,99130.53
2023-03-11T02:49:37.055Z,99122.47
2023-03-11T02:52:06.888Z,99113.06
2023-03-11T02:54:35.817Z,99119.03
2023-03-11T02:57:06.198Z,99126.84
2023-03-11T02:59:35.944Z,99123.41
2023-03-11T03:02:04.978Z,99133.53
2023-03-11T03:04:34.863Z,99125.69
2023-03-11T03:07:04.239Z,99122.22
2023-03-11T03:09:34.364Z,99126.31
2023-03-11T03:12:03.666Z,99126.75
2023-03-11T03:14:36.111Z,99123.28
2023-03-11T03:17:05.391Z,99125.31
2023-03-11T03:19:34.364Z,99118.16
2023-03-11T03:22:03.398Z,99113.78
2023-03-11T03:24:32.581Z,99107.75
2023-03-11T03:27:01.672Z,99117.81
2023-03-11T03:29:30.989Z,99122.88
2023-03-11T03:32:01.363Z,99124.66
2023-03-11T03:34:30.420Z,99130.59
2023-03-11T03:36:59.360Z,99128.50
2023-03-11T03:39:30.511Z,99135.13
2023-03-11T03:42:00.338Z,99127.94
2023-03-11T03:44:32.056Z,99132.22
2023-03-11T03:47:03.050Z,99131.28
2023-03-11T03:49:32.493Z,99129.38
2023-03-11T03:52:01.387Z,99118.53
2023-03-11T03:54:33.765Z,99126.97
2023-03-11T03:57:04.947Z,99123.25
2023-03-11T03:59:37.467Z,99126.41
2023-03-11T04:02:08.068Z,99123.16
2023-03-11T04:04:37.172Z,99120.34
2023-03-11T04:07:07.040Z,99122.41
2023-03-11T04:09:39.931Z,99106.94
2023-03-11T04:12:09.804Z,99114.97
2023-03-11T04:14:38.847Z,99100.88
2023-03-11T04:17:10.376Z,99110.06
2023-03-11T04:19:39.644Z,99109.78
2023-03-11T04:22:09.268Z,99106.81
2023-03-11T04:24:38.386Z,99100.31
2023-03-11T04:27:07.664Z,99099.38
2023-03-11T04:29:37.504Z,99097.00
2023-03-11T04:32:09.028Z,99085.94
2023-03-11T04:34:39.416Z,99087.25
2023-03-11T04:37:08.603Z,99084.03
2023-03-11T04:39:39.055Z,99089.25
2023-03-11T04:42:08.695Z,99078.56
2023-03-11T04:44:38.942Z,99077.97
2023-03-11T04:47:09.820Z,99074.53
2023-03-11T04:49:39.440Z,99069.09
2023-03-11T04:52:08.603Z,99069.22
2023-03-11T04:54:38.205Z,99075.78
2023-03-11T04:57:08.190Z,99065.63
2023-03-11T04:59:38.581Z,99072.66
2023-03-11T05:02:11.728Z,99067.09
2023-03-11T05:04:45.959Z,99067.00
2023-03-11T05:07:17.233Z,99064.28
2023-03-11T05:09:47.557Z,99070.16
2023-03-11T05:12:16.628Z,99064.53
2023-03-11T05:14:50.481Z,99065.84
2023-03-11T05:17:21.156Z,99072.53
2023-03-11T05:19:51.799Z,99067.19
2023-03-11T05:22:26.109Z,99063.81
2023-03-11T05:24:55.689Z,99062.19
2023-03-11T05:27:25.668Z,99060.09
2023-03-11T05:29:57.912Z,99052.16
2023-03-11T05:32:30.604Z,99052.88
2023-03-11T05:34:59.733Z,99049.03
2023-03-11T05:37:29.035Z,99043.16
2023-03-11T05:39:58.794Z,99048.44
2023-03-11T05:42:27.727Z,99044.44
2023-03-11T05:44:58.576Z,99044.59
2023-03-11T05:47:28.102Z,99043.13
2023-03-11T05:50:00.052Z,99044.91
2023-03-11T05:52:34.011Z,99038.91
2023-03-11T05:55:03.076Z,99043.00
2023-03-11T05:57:33.507Z,99040.22
2023-03-11T06:00:04.357Z,99031.16
2023-03-11T06:02:43.256Z,99037.13
2023-03-11T06:05:17.770Z,99038.78
2023-03-11T06:07:48.894Z,99032.78
2023-03-11T06:10:18.764Z,99047.22
2023-03-11T06:12:48.572Z,99039.00
2023-03-11T06:15:25.931Z,99037.72
2023-03-11T06:17:55.750Z,99037.47
2023-03-11T06:20:26.524Z,99039.94
2023-03-11T06:22:55.905Z,99038.78
2023-03-11T06:25:26.733Z,99031.72
2023-03-11T06:27:56.766Z,99032.13
2023-03-11T06:30:27.084Z,99035.34
2023-03-11T06:33:08.241Z,99035.91
2023-03-11T06:35:38.677Z,99039.94
2023-03-11T06:38:07.880Z,99037.94
2023-03-11T06:40:38.151Z,99041.91
2023-03-11T06:43:07.449Z,99035.25
2023-03-11T06:45:40.695Z,99034.47
2023-03-11T06:48:10.762Z,99038.00
2023-03-11T06:50:44.566Z,99036.75
2023-03-11T06:53:13.685Z,99033.50
2023-03-11T06:55:42.775Z,99027.53
2023-03-11T06:58:11.981Z,99018.03
2023-03-11T07:00:42.706Z,99026.78
2023-03-11T07:03:12.821Z,99022.06
2023-03-11T07:05:42.033Z,99020.50
2023-03-11T07:08:14.674Z,99014.91
2023-03-11T07:10:43.736Z,99009.94
2023-03-11T07:13:12.729Z,99016.06
2023-03-11T07:15:41.773Z,99013.34
2023-03-11T07:18:10.833Z,99022.94
2023-03-11T07:20:39.989Z,99023.38
2023-03-11T07:23:08.932Z,99015.13
2023-03-11T07:25:39.331Z,99011.09
2023-03-11T07:28:08.400Z,99010.53
2023-03-11T07:30:39.958Z,99002.38
2023-03-11T07:33:10.255Z,99004.97
2023-03-11T07:35:39.398Z,98999.09
2023-03-11T07:38:08.609Z,98997.72
2023-03-11T07:40:39.196Z,99001.81
2023-03-11T07:43:09.237Z,98996.88
2023-03-11T07:45:38.493Z,98992.28
2023-03-11T07:48:07.991Z,98989.66
2023-03-11T07:50:37.116Z,98975.31
2023-03-11T07:53:06.481Z,98966.81
2023-03-11T07:55:36.203Z,98974.00
2023-03-11T07:58:06.760Z,98962.16
2023-03-11T08:00:35.752Z,98959.78
2023-03-11T08:03:04.757Z,98961.63
2023-03-11T08:05:35.172Z,98951.94
2023-03-11T08:08:04.204Z,98946.75
2023-03-11T08:10:33.876Z,98946.88
2023-03-11T08:13:02.802Z,98940.19
2023-03-11T08:15:33.569Z,98936.53
2023-03-11T08:18:02.524Z,98933.00
2023-03-11T08:20:31.754Z,98928.88
2023-03-11T08:23:00.812Z,98912.22
2023-03-11T08:25:29.749Z,98908.69
2023-03-11T08:27:59.009Z,98901.81
2023-03-11T08:30:29.410Z,98905.78
2023-03-11T08:33:00.032Z,98909.38
2023-03-11T08:35:29.053Z,98902.75
2023-03-11T08:37:58.370Z,98889.34
2023-03-11T08:40:27.494Z,98892.84
2023-03-11T08:42:57.472Z,98891.44
2023-03-11T08:45:26.543Z,98882.88
2023-03-11T08:47:55.544Z,98882.09
2023-03-11T08:50:26.146Z,98880.66
2023-03-11T08:52:56.581Z,98877.47
2023-03-11T08:55:27.889Z,98871.88
2023-03-11T08:57:57.743Z,98861.91
2023-03-11T09:00:26.968Z,98868.66
2023-03-11T09:02:56.931Z,98864.81
2023-03-11T09:05:27.954Z,98871.75
2023-03-11T09:07:57.200Z,98866.84
2023-03-11T09:10:29.103Z,98866.38
2023-03-11T09:12:58.198Z,98865.59
2023-03-11T09:15:27.701Z,98869.06
2023-03-11T09:17:57.023Z,98872.47
2023-03-11T09:20:27.643Z,98865.34
2023-03-11T09:22:56.662Z,98865.72
2023-03-11T09:25:26.545Z,98862.09
2023-03-11T09:27:56.375Z,98850.75
2023-03-11T09:30:25.683Z,98859.53
2023-03-11T09:32:55.642Z,98854.72
2023-03-11T09:35:25.038Z,98858.13
2023-03-11T09:37:55.625Z,98847.09
2023-03-11T09:40:29.796Z,98832.69
2023-03-11T09:43:09.167Z,98844.59
2023-03-11T09:45:47.868Z,98828.53
2023-03-11T09:48:23.100Z,98821.44
2023-03-11T09:50:55.275Z,98828.00
2023-03-11T09:53:36.447Z,98811.59
2023-03-11T09:56:08.556Z,98817.28
2023-03-11T09:58:41.650Z,98811.06
2023-03-11T10:01:19.734Z,98813.97
2023-03-11T10:03:49.958Z,98808.53
2023-03-11T10:06:24.610Z,98816.31
2023-03-11T10:09:02.398Z,98821.97
2023-03-11T10:11:53.019Z,98807.41
2023-03-11T10:14:37.504Z,98815.34
2023-03-11T10:17:15.914Z,98806.59
2023-03-11T10:19:50.292Z,98801.84
2023-03-11T10:22:25.747Z,98788.22
2023-03-11T10:25:05.625Z,98782.38
2023-03-11T10:27:47.322Z,98783.31
2023-03-11T10:30:25.652Z,98773.84
2023-03-11T10:33:12.660Z,98756.91
2023-03-11T10:35:44.934Z,98750.22
2023-03-11T10:38:18.091Z,98755.66
2023-03-11T10:40:52.518Z,98755.06
2023-03-11T10:43:30.127Z,98750.53
2023-03-11T10:46:00.760Z,98736.72
2023-03-11T10:48:32.834Z,98726.16
2023-03-11T10:51:05.140Z,98721.63
2023-03-11T10:53:41.774Z,98722.50
2023-03-11T10:56:27.413Z,98719.41
2023-03-11T10:58:56.561Z,98715.22
2023-03-11T11:01:26.979Z,98709.44
2023-03-11T11:04:01.644Z,98704.50
2023-03-11T11:06:36.232Z,98707.41
2023-03-11T11:09:22.454Z,98699.78
2023-03-11T11:12:17.868Z,98686.13
2023-03-11T11:14:49.098Z,98688.66
2023-03-11T11:17:20.695Z,98680.25
2023-03-11T11:19:54.063Z,98692.28
2023-03-11T11:22:24.545Z,98679.34
2023-03-11T11:24:55.502Z,98681.91
2023-03-11T11:27:28.161Z,98674.81
2023-03-11T11:30:17.119Z,98667.91
2023-03-11T11:32:46.263Z,98659.88
2023-03-11T11:35:19.005Z,98667.16
2023-03-11T11:37:50.086Z,98659.00
2023-03-11T11:40:26.343Z,98657.16
2023-03-11T11:43:00.508Z,98651.91
2023-03-11T11:45:36.760Z,98646.06
2023-03-11T11:48:12.688Z,98646.81
2023-03-11T11:50:45.859Z,98637.66
2023-03-11T11:53:26.437Z,98632.94
2023-03-11T11:55:55.862Z,98627.69
2023-03-11T11:58:26.600Z,98628.59
2023-03-11T12:01:06.293Z,98626.41
2023-03-11T12:03:50.968Z,98623.13
2023-03-11T12:06:28.429Z,98628.97
2023-03-11T12:09:10.484Z,98628.78
2023-03-11T12:11:45.293Z,98620.63
2023-03-11T12:14:21.697Z,98608.94
2023-03-11T12:16:58.750Z,98603.69
2023-03-11T12:19:43.054Z,98608.22
2023-03-11T12:22:43.022Z,98602.41
2023-03-11T12:25:26.689Z,98608.78
2023-03-11T12:28:09.254Z,98607.31
2023-03-11T12:30:50.269Z,98597.47
2023-03-11T12:33:27.103Z,98596.56
2023-03-11T12:35:59.485Z,98598.00
2023-03-11T12:38:34.478Z,98591.78
2023-03-11T12:41:09.095Z,98592.19
2023-03-11T12:44:05.667Z,98583.81
2023-03-11T12:47:03.960Z,98595.28
2023-03-11T12:49:34.206Z,98586.75
2023-03-11T12:52:20.600Z,98589.28
2023-03-11T12:54:52.516Z,98588.72
2023-03-11T12:57:38.860Z,98582.72
2023-03-11T13:00:24.175Z,98583.47
2023-03-11T13:03:36.401Z,98577.63
2023-03-11T13:06:22.502Z,98572.56
2023-03-11T13:08:54.926Z,98560.53
2023-03-11T13:11:44.720Z,98563.81
2023-03-11T13:14:28.664Z,98548.16
2023-03-11T13:16:59.066Z,98555.81
2023-03-11T13:19:51.462Z,98556.56
2023-03-11T13:22:43.714Z,98553.28
2023-03-11T13:25:30.131Z,98546.00
2023-03-11T13:28:12.557Z,98549.44
2023-03-11T13:30:50.586Z,98543.97
2023-03-11T13:33:31.180Z,98541.22
2023-03-11T13:36:16.126Z,98540.50
2023-03-11T13:39:02.215Z,98540.88
2023-03-11T13:41:34.329Z,98534.00
2023-03-11T13:44:16.185Z,98527.44
2023-03-11T13:46:49.956Z,98528.38
2023-03-11T13:49:29.936Z,98518.34
2023-03-11T13:52:03.200Z,98512.50
2023-03-11T13:54:39.252Z,98512.19
2023-03-11T13:57:23.250Z,98508.91
2023-03-11T13:59:56.403Z,98506.53
2023-03-11T14:02:27.711Z,98505.25
2023-03-11T14:05:04.546Z,98494.16
2023-03-11T14:07:38.607Z,98497.97
2023-03-11T14:10:27.867Z,98495.78
2023-03-11T14:13:18.000Z,98494.88
2023-03-11T14:15:56.068Z,98485.06
2023-03-11T14:18:34.019Z,98485.97
2023-03-11T14:21:04.934Z,98478.88
2023-03-11T14:23:41.125Z,98481.56
2023-03-11T14:26:15.481Z,98476.84
2023-03-11T14:28:47.817Z,98481.41
2023-03-11T14:31:31.497Z,98463.72
2023-03-11T14:34:04.680Z,98470.84
2023-03-11T14:36:43.696Z,98463.00
2023-03-11T14:39:28.921Z,98465.38
2023-03-11T14:42:03.167Z,98457.88
2023-03-11T14:44:34.590Z,98449.53
2023-03-11T14:47:12.699Z,98444.59
2023-03-11T14:49:43.389Z,98436.06
2023-03-11T14:52:20.094Z,98440.03
2023-03-11T14:54:53.604Z,98432.38
2023-03-11T14:57:28.813Z,98428.94
2023-03-11T15:00:01.373Z,98427.13
2023-03-11T15:02:51.937Z,98420.03
2023-03-11T15:05:27.004Z,98420.78
2023-03-11T15:08:01.848Z,98413.88
2023-03-11T15:10:32.629Z,98406.38
2023-03-11T15:13:16.354Z,98407.28
2023-03-11T15:15:47.276Z,98418.97
2023-03-11T15:18:23.937Z,98412.94
2023-03-11T15:21:15.426Z,98412.94
2023-03-11T15:23:47.587Z,98411.47
2023-03-11T15:26:23.748Z,98410.75
2023-03-11T15:28:58.390Z,98409.09
2023-03-11T15:31:31.726Z,98407.81
2023-03-11T15:34:25.307Z,98406.34
2023-03-11T15:37:01.576Z,98411.63
2023-03-11T15:39:44.288Z,98409.28
2023-03-11T15:42:19.490Z,98416.91
2023-03-11T15:45:05.999Z,98409.97
2023-03-11T15:47:36.151Z,98396.34
2023-03-11T15:50:24.167Z,98391.22
2023-03-11T15:52:55.795Z,98391.22
2023-03-11T15:55:25.502Z,98393.06
2023-03-11T15:58:02.479Z,98371.94
2023-03-11T16:00:33.153Z,98365.19
2023-03-11T16:03:02.932Z,98347.53
2023-03-11T16:05:32.062Z,98338.44
2023-03-11T16:08:01.055Z,98335.88
2023-03-11T16:10:30.144Z,98333.81
2023-03-11T16:13:00.709Z,98326.78
2023-03-11T16:15:31.999Z,98326.63
2023-03-11T16:18:02.713Z,98328.69
2023-03-11T16:20:34.718Z,98313.03
2023-03-11T16:23:04.701Z,98319.16
2023-03-11T16:25:37.994Z,98310.19
2023-03-11T16:28:09.396Z,98310.00
2023-03-11T16:30:38.551Z,98299.59
2023-03-11T16:33:07.900Z,98289.59
2023-03-11T16:35:37.304Z,98297.53
2023-03-11T16:38:08.219Z,98297.41
2023-03-11T16:40:38.018Z,98300.00
2023-03-11T16:43:15.669Z,98301.09
2023-03-11T16:45:45.031Z,98293.78
2023-03-11T16:48:14.296Z,98295.59
2023-03-11T16:50:43.591Z,98280.63
2023-03-11T16:53:14.198Z,98278.84
2023-03-11T16:55:45.573Z,98269.84
2023-03-11T16:58:18.113Z,98276.88
2023-03-11T17:00:47.556Z,98254.09
2023-03-11T17:03:21.369Z,98255.59
2023-03-11T17:05:51.280Z,98253.19
2023-03-11T17:08:20.586Z,98244.81
2023-03-11T17:10:52.652Z,98243.00
2023-03-11T17:13:23.138Z,98230.97
2023-03-11T17:15:59.472Z,98227.53
2023-03-11T17:18:29.430Z,98236.09
2023-03-11T17:20:58.564Z,98230.22
2023-03-11T17:23:27.712Z,98229.53
2023-03-11T17:25:56.783Z,98214.38
2023-03-11T17:28:27.469Z,98212.72
2023-03-11T17:30:56.865Z,98222.19
2023-03-11T17:33:25.919Z,98207.06
2023-03-11T17:36:01.754Z,98192.81
2023-03-11T17:38:30.997Z,98195.38
2023-03-11T17:41:00.484Z,98187.91
2023-03-11T17:43:30.979Z,98191.50
2023-03-11T17:46:00.143Z,98178.00
2023-03-11T17:48:29.593Z,98160.13
2023-03-11T17:50:58.991Z,98163.38
2023-03-11T17:53:28.233Z,98151.38
2023-03-11T17:55:57.466Z,98156.06
2023-03-11T17:58:26.769Z,98153.66
2023-03-11T18:01:00.812Z,98150.38
2023-03-11T18:03:30.020Z,98146.91
2023-03-11T18:06:01.480Z,98138.53
2023-03-11T18:08:31.336Z,98131.91
2023-03-11T18:11:03.317Z,98110.03
2023-03-11T18:13:34.254Z,98115.47
2023-03-11T18:16:07.014Z,98110.53
2023-03-11T18:18:37.842Z,98109.22
2023-03-11T18:21:09.470Z,98110.44
2023-03-11T18:23:39.003Z,98101.13
2023-03-11T18:26:09.056Z,98112.09
2023-03-11T18:28:38.184Z,98102.94
2023-03-11T18:31:11.734Z,98100.56
2023-03-11T18:33:41.550Z,98101.78
2023-03-11T18:36:15.375Z,98109.75
2023-03-11T18:38:44.951Z,98096.41
2023-03-11T18:41:14.216Z,98101.66
2023-03-11T18:43:43.803Z,98099.78
2023-03-11T18:46:18.264Z,98093.19
2023-03-11T18:48:47.822Z,98091.69
2023-03-11T18:51:17.056Z,98094.72
2023-03-11T18:53:46.245Z,98097.47
2023-03-11T18:56:17.590Z,98089.03
2023-03-11T18:58:47.007Z,98083.50
2023-03-11T19:01:19.562Z,98091.50
2023-03-11T19:03:51.818Z,98080.84
2023-03-11T19:06:22.376Z,98054.75
2023-03-11T19:08:51.768Z,98056.69
2023-03-11T19:11:22.612Z,98047.38
2023-03-11T19:13:52.491Z,98044.09
2023-03-11T19:16:24.667Z,98015.56
2023-03-11T19:18:55.348Z,98008.38
2023-03-11T19:21:26.200Z,98014.69
2023-03-11T19:23:56.703Z,98010.47
2023-03-11T19:26:43.087Z,98009.00
2023-03-11T19:29:12.715Z,98000.72
2023-03-11T19:31:44.237Z,97979.84
2023-03-11T19:34:13.492Z,97984.06
2023-03-11T19:36:42.519Z,97985.28
2023-03-11T19:39:11.792Z,97974.75
2023-03-11T19:41:40.995Z,97972.00
2023-03-11T19:44:10.099Z,97969.19
2023-03-11T19:46:39.600Z,97955.75
2023-03-11T19:49:10.123Z,97951.25
2023-03-11T19:51:49.604Z,97946.56
2023-03-11T19:54:19.591Z,97932.72
2023-03-11T19:56:49.240Z,97922.97
2023-03-11T19:59:18.338Z,97921.63
2023-03-11T20:01:47.653Z,97922.22
2023-03-11T20:04:19.219Z,97917.09
2023-03-11T20:06:48.404Z,97897.88
2023-03-11T20:09:17.957Z,97896.66
2023-03-11T20:11:47.520Z,97899.38
2023-03-11T20:14:16.540Z,97889.41
2023-03-11T20:16:45.787Z,97889.72
2023-03-11T20:19:14.878Z,97892.00
2023-03-11T20:21:46.304Z,97876.66
2023-03-11T20:24:15.545Z,97876.31
2023-03-11T20:26:44.494Z,97874.06
2023-03-11T20:29:13.450Z,97869.56
2023-03-11T20:31:42.641Z,97860.69
2023-03-11T20:34:12.138Z,97842.00
2023-03-11T20:36:41.612Z,97838.41
2023-03-11T20:39:12.158Z,97829.81
2023-03-11T20:41:43.358Z,97834.94
2023-03-11T20:44:15.068Z,97816.44
2023-03-11T20:46:44.237Z,97820.66
2023-03-11T20:49:13.514Z,97819.88
2023-03-11T20:51:44.026Z,97804.97
2023-03-11T20:54:14.456Z,97798.47
2023-03-11T20:56:43.605Z,97793.66
2023-03-11T20:59:14.374Z,97794.88
2023-03-11T21:01:44.842Z,97784.03
2023-03-11T21:04:16.320Z,97780.41
2023-03-11T21:06:45.477Z,97776.00
2023-03-11T21:09:16.753Z,97767.69
2023-03-11T21:11:46.218Z,97769.47
2023-03-11T21:14:17.505Z,97750.13
2023-03-11T21:16:47.075Z,97741.78
2023-03-11T21:19:16.376Z,97730.47
2023-03-11T21:21:45.495Z,97733.03
2023-03-11T21:24:16.190Z,97731.38
2023-03-11T21:26:45.254Z,97730.66
2023-03-11T21:29:14.317Z,97705.19
2023-03-11T21:31:43.485Z,97704.41
2023-03-11T21:34:12.956Z,97708.78
2023-03-11T21:36:42.036Z,97690.09
2023-03-11T21:39:10.979Z,97678.97
2023-03-11T21:41:41.372Z,97680.00
2023-03-11T21:44:10.332Z,97675.03
2023-03-11T21:46:39.385Z,97668.25
2023-03-11T21:49:08.521Z,97660.56
2023-03-11T21:51:37.622Z,97647.00
2023-03-11T21:54:07.053Z,97641.28
2023-03-11T21:56:36.070Z,97636.16
2023-03-11T21:59:06.630Z,97637.16
2023-03-11T22:01:36.175Z,97621.03
2023-03-11T22:04:05.710Z,97621.03
2023-03-11T22:06:34.886Z,97616.84
2023-03-11T22:09:05.565Z,97603.13
2023-03-11T22:11:34.677Z,97599.06
2023-03-11T22:14:03.638Z,97597.25
2023-03-11T22:16:34.129Z,97602.50
2023-03-11T22:19:06.249Z,97596.78
2023-03-11T22:21:35.342Z,97587.31
2023-03-11T22:24:04.368Z,97581.53
2023-03-11T22:26:33.342Z,97577.47
2023-03-11T22:29:04.055Z,97577.88
2023-03-11T22:31:34.896Z,97564.00
2023-03-11T22:34:03.801Z,97563.28
2023-03-11T22:36:35.555Z,97560.22
2023-03-11T22:39:05.697Z,97556.88
2023-03-11T22:41:34.928Z,97540.75
2023-03-11T22:44:03.819Z,97537.56
2023-03-11T22:46:34.178Z,97531.34
2023-03-11T22:49:03.165Z,97532.09
2023-03-11T22:51:32.098Z,97524.69
2023-03-11T22:54:01.046Z,97528.28
2023-03-11T22:56:29.987Z,97522.25
2023-03-11T22:58:59.542Z,97514.69
2023-03-11T23:01:28.538Z,97513.19
2023-03-11T23:03:58.908Z,97500.63
2023-03-11T23:06:28.030Z,97507.56
2023-03-11T23:08:56.895Z,97494.09
2023-03-11T23:11:25.909Z,97492.31
2023-03-11T23:13:56.884Z,97477.34
2023-03-11T23:16:26.377Z,97485.78
2023-03-11T23:18:56.719Z,97476.09
2023-03-11T23:21:29.571Z,97458.41
2023-03-11T23:23:59.950Z,97449.19
2023-03-11T23:26:29.778Z,97446.91
2023-03-11T23:28:58.754Z,97442.50
2023-03-11T23:31:27.999Z,97433.31
2023-03-11T23:33:57.380Z,97431.13
2023-03-11T23:36:30.443Z,97428.84
2023-03-11T23:38:59.657Z,97431.28
2023-03-11T23:41:29.300Z,97428.22
2023-03-11T23:43:58.400Z,97406.16
2023-03-11T23:46:27.434Z,97415.78
2023-03-11T23:48:56.383Z,97413.72
2023-03-11T23:51:25.395Z,97399.38
2023-03-11T23:53:56.062Z,97404.59
2023-03-11T23:56:24.995Z,97393.84
2023-03-11T23:58:53.916Z,97394.09
